Time;durP1;ratioP1;P1;durP2;ratioP2;P2;SDS_P1;SDS_P2;PMS_P1;PMS_P2;Temp;Humidity;BMP_temperature;BMP_pressure;BME280_temperature;BME280_humidity;BME280_pressure;Samples;Min_cycle;Max_cycle;Signal;HPM_P1;HPM_P2
2024/02/01 00:00:58;;;;;;;4.10;3.40;;;;;;;;;;5017465;28;20564;-53
2024/02/01 00:03:24;;;;;;;3.73;3.30;;;;;;;;;;5023539;28;20186;-53
2024/02/01 00:05:50;;;;;;;4.80;3.53;;;;;;;;;;5018443;28;20207;-53
2024/02/01 00:08:16;;;;;;;4.43;3.40;;;;;;;;;;5023633;28;20289;-53
2024/02/01 00:10:42;;;;;;;4.50;3.20;;;;;;;;;;5018534;28;20273;-53
2024/02/01 00:13:09;;;;;;;4.97;3.07;;;;;;;;;;5020821;28;20177;-53
2024/02/01 00:15:35;;;;;;;6.20;3.60;;;;;;;;;;5019052;28;20182;-53
2024/02/01 00:18:01;;;;;;;4.07;3.67;;;;;;;;;;5021678;28;20202;-53
2024/02/01 00:20:27;;;;;;;3.93;3.53;;;;;;;;;;5023191;28;20233;-53
2024/02/01 00:22:53;;;;;;;3.20;2.90;;;;;;;;;;5028642;28;20188;-53
2024/02/01 00:25:19;;;;;;;5.17;3.77;;;;;;;;;;5028537;28;20173;-53
2024/02/01 00:27:45;;;;;;;4.70;3.43;;;;;;;;;;5025204;28;20174;-53
2024/02/01 00:30:11;;;;;;;5.00;3.37;;;;;;;;;;5026230;28;20652;-53
2024/02/01 00:32:37;;;;;;;4.07;3.13;;;;;;;;;;5027283;28;20601;-53
2024/02/01 00:35:04;;;;;;;4.40;3.53;;;;;;;;;;5020136;28;20290;-53
2024/02/01 00:37:30;;;;;;;4.70;3.67;;;;;;;;;;5022808;28;20206;-53
2024/02/01 00:39:56;;;;;;;4.83;3.57;;;;;;;;;;5028056;28;20232;-53
2024/02/01 00:42:22;;;;;;;3.93;3.53;;;;;;;;;;5022255;28;20217;-53
2024/02/01 00:44:48;;;;;;;4.97;3.90;;;;;;;;;;5018574;28;20185;-53
2024/02/01 00:47:14;;;;;;;4.77;4.10;;;;;;;;;;5024963;28;20221;-53
2024/02/01 00:49:40;;;;;;;5.77;4.30;;;;;;;;;;5018775;28;20278;-53
2024/02/01 00:52:07;;;;;;;5.60;4.03;;;;;;;;;;5024742;28;20177;-53
2024/02/01 00:54:33;;;;;;;6.83;4.60;;;;;;;;;;5028267;28;20587;-53
2024/02/01 00:56:59;;;;;;;6.77;4.20;;;;;;;;;;5026981;28;20229;-53
2024/02/01 00:59:27;;;;;;;4.87;4.33;;;;;;;;;;5022673;28;20212;-52
2024/02/01 01:01:53;;;;;;;7.13;5.03;;;;;;;;;;5024836;28;20174;-52
2024/02/01 01:04:19;;;;;;;7.30;5.17;;;;;;;;;;5027351;28;20188;-52
2024/02/01 01:06:45;;;;;;;6.30;4.10;;;;;;;;;;5014255;28;20190;-51
2024/02/01 01:09:12;;;;;;;5.53;4.17;;;;;;;;;;5022298;28;20223;-52
2024/02/01 01:11:38;;;;;;;6.60;4.90;;;;;;;;;;5024083;28;20177;-52
2024/02/01 01:14:04;;;;;;;8.30;4.97;;;;;;;;;;5024044;28;20178;-52
2024/02/01 01:16:30;;;;;;;5.80;4.27;;;;;;;;;;5020993;28;20228;-51
2024/02/01 01:18:56;;;;;;;7.77;4.60;;;;;;;;;;5025736;28;20256;-51
2024/02/01 01:21:22;;;;;;;6.57;4.47;;;;;;;;;;5023236;28;20177;-52
2024/02/01 01:23:48;;;;;;;5.50;4.63;;;;;;;;;;5020559;28;20240;-58
2024/02/01 01:26:14;;;;;;;6.97;4.63;;;;;;;;;;5014893;28;20181;-57
2024/02/01 01:28:40;;;;;;;6.17;5.03;;;;;;;;;;5025366;28;20185;-57
2024/02/01 01:31:06;;;;;;;6.20;4.43;;;;;;;;;;5025280;28;20618;-58
2024/02/01 01:33:34;;;;;;;5.87;4.70;;;;;;;;;;5024643;28;20170;-58
2024/02/01 01:36:00;;;;;;;7.33;5.23;;;;;;;;;;5019498;28;20672;-57
2024/02/01 01:38:26;;;;;;;6.87;5.03;;;;;;;;;;5027447;28;20198;-57
2024/02/01 01:40:52;;;;;;;4.23;3.83;;;;;;;;;;5020821;28;20175;-57
2024/02/01 01:43:18;;;;;;;5.87;4.93;;;;;;;;;;5020027;28;20202;-57
2024/02/01 01:45:44;;;;;;;7.10;4.30;;;;;;;;;;5017397;28;20527;-55
2024/02/01 01:48:10;;;;;;;8.07;5.27;;;;;;;;;;5020812;28;20236;-57
2024/02/01 01:50:36;;;;;;;7.00;4.70;;;;;;;;;;5022054;28;20182;-57
2024/02/01 01:53:03;;;;;;;4.80;4.30;;;;;;;;;;5024799;28;20613;-56
2024/02/01 01:55:30;;;;;;;6.77;4.67;;;;;;;;;;5022678;28;20289;-56
2024/02/01 01:57:56;;;;;;;4.47;3.83;;;;;;;;;;5015288;28;20642;-55
2024/02/01 02:00:23;;;;;;;6.40;4.13;;;;;;;;;;5020318;28;20174;-57
2024/02/01 02:02:50;;;;;;;5.07;4.10;;;;;;;;;;5021906;28;20177;-58
2024/02/01 02:05:16;;;;;;;5.90;4.37;;;;;;;;;;5023998;28;20521;-58
2024/02/01 02:07:42;;;;;;;4.47;3.93;;;;;;;;;;5020144;28;20645;-58
2024/02/01 02:10:14;;;;;;;5.83;4.83;;;;;;;;;;5015760;28;20213;-58
2024/02/01 02:12:40;;;;;;;5.13;4.30;;;;;;;;;;5023706;28;20190;-58
2024/02/01 02:15:06;;;;;;;4.83;4.33;;;;;;;;;;5025494;28;20204;-56
2024/02/01 02:17:32;;;;;;;5.80;4.63;;;;;;;;;;5025193;28;20515;-58
2024/02/01 02:20:17;;;;;;;5.47;3.90;;;;;;;;;;5017703;28;20253;-57
2024/02/01 02:22:47;;;;;;;4.10;3.67;;;;;;;;;;5020264;28;20193;-59
2024/02/01 02:25:16;;;;;;;6.13;4.20;;;;;;;;;;5025842;28;20328;-57
2024/02/01 02:27:42;;;;;;;5.37;4.33;;;;;;;;;;5021886;28;20178;-54
2024/02/01 02:30:11;;;;;;;4.97;4.30;;;;;;;;;;5016582;28;20607;-57
2024/02/01 02:32:37;;;;;;;4.43;3.87;;;;;;;;;;5024488;28;20186;-57
2024/02/01 02:35:04;;;;;;;5.47;3.90;;;;;;;;;;5025513;28;20260;-57
2024/02/01 02:37:30;;;;;;;5.30;3.73;;;;;;;;;;5016315;28;20590;-57
2024/02/01 02:39:56;;;;;;;3.73;3.40;;;;;;;;;;5023017;28;20260;-58
2024/02/01 02:42:22;;;;;;;5.77;4.10;;;;;;;;;;5026099;28;20200;-57
2024/02/01 02:44:48;;;;;;;6.23;3.97;;;;;;;;;;5025411;28;20207;-58
2024/02/01 02:47:14;;;;;;;4.83;4.07;;;;;;;;;;5027056;28;20229;-57
2024/02/01 02:49:40;;;;;;;6.33;4.33;;;;;;;;;;5023385;28;20186;-58
2024/02/01 02:52:06;;;;;;;4.20;3.60;;;;;;;;;;5020872;28;20189;-58
2024/02/01 02:54:33;;;;;;;5.37;3.57;;;;;;;;;;5020983;28;20174;-58
2024/02/01 02:56:59;;;;;;;4.60;4.00;;;;;;;;;;5019812;28;20652;-58
2024/02/01 02:59:25;;;;;;;5.73;3.97;;;;;;;;;;5019248;28;20277;-57
2024/02/01 03:01:54;;;;;;;4.33;3.77;;;;;;;;;;5019579;28;20174;-57
2024/02/01 03:04:20;;;;;;;4.53;4.13;;;;;;;;;;5014827;28;20178;-57
2024/02/01 03:06:46;;;;;;;5.93;4.23;;;;;;;;;;5017210;28;20236;-57
2024/02/01 03:09:16;;;;;;;4.60;3.90;;;;;;;;;;5015745;28;20259;-56
2024/02/01 03:11:43;;;;;;;4.43;3.73;;;;;;;;;;5015457;28;20186;-55
2024/02/01 03:14:11;;;;;;;4.23;3.63;;;;;;;;;;5018488;28;20618;-57
2024/02/01 03:16:37;;;;;;;3.80;3.43;;;;;;;;;;5018973;28;20179;-57
2024/02/01 03:19:03;;;;;;;4.65;4.15;;;;;;;;;;5019193;28;20304;-57
2024/02/01 03:21:30;;;;;;;7.87;5.07;;;;;;;;;;5014732;28;20774;-58
2024/02/01 03:23:58;;;;;;;6.30;5.13;;;;;;;;;;5017268;28;20170;-58
2024/02/01 03:26:25;;;;;;;7.43;4.83;;;;;;;;;;5025728;28;20212;-57
2024/02/01 03:28:52;;;;;;;5.33;4.80;;;;;;;;;;5015069;28;20178;-58
2024/02/01 03:31:19;;;;;;;5.27;4.67;;;;;;;;;;5024421;28;20297;-57
2024/02/01 03:33:47;;;;;;;6.17;5.30;;;;;;;;;;5025264;28;20629;-57
2024/02/01 03:36:14;;;;;;;8.67;5.20;;;;;;;;;;5023574;28;20200;-57
2024/02/01 03:38:42;;;;;;;5.63;5.07;;;;;;;;;;5022607;28;20618;-57
2024/02/01 03:41:08;;;;;;;6.73;6.13;;;;;;;;;;5026220;28;20201;-57
2024/02/01 03:43:34;;;;;;;6.33;5.60;;;;;;;;;;5022932;28;20621;-49
2024/02/01 03:46:00;;;;;;;7.70;6.47;;;;;;;;;;5024483;28;20285;-48
2024/02/01 03:48:26;;;;;;;7.23;5.80;;;;;;;;;;5027138;28;20312;-50
2024/02/01 03:50:52;;;;;;;7.53;5.43;;;;;;;;;;5026858;28;20611;-48
2024/02/01 03:53:18;;;;;;;5.87;5.17;;;;;;;;;;5022441;28;20187;-49
2024/02/01 03:55:48;;;;;;;6.77;6.07;;;;;;;;;;5025746;28;20196;-49
2024/02/01 03:58:16;;;;;;;7.13;5.47;;;;;;;;;;5028142;28;20181;-48
2024/02/01 04:00:43;;;;;;;8.30;6.03;;;;;;;;;;5016279;28;20213;-50
2024/02/01 04:03:14;;;;;;;6.13;5.53;;;;;;;;;;5028559;28;20170;-48
2024/02/01 04:05:41;;;;;;;5.87;5.27;;;;;;;;;;5023334;28;20182;-48
2024/02/01 04:08:08;;;;;;;6.43;5.10;;;;;;;;;;5024891;28;20217;-49
2024/02/01 04:10:34;;;;;;;6.03;5.17;;;;;;;;;;5028576;28;20204;-49
2024/02/01 04:13:09;;;;;;;5.47;4.97;;;;;;;;;;5028250;28;20645;-49
2024/02/01 04:15:36;;;;;;;5.53;5.03;;;;;;;;;;5025604;28;20172;-49
2024/02/01 04:18:03;;;;;;;7.20;5.95;;;;;;;;;;5020936;28;20227;-48
2024/02/01 04:20:30;;;;;;;6.67;5.43;;;;;;;;;;5012958;28;20194;-49
2024/02/01 04:22:56;;;;;;;5.87;5.23;;;;;;;;;;5019312;28;20269;-52
2024/02/01 04:25:25;;;;;;;5.47;4.97;;;;;;;;;;5024755;28;20531;-49
2024/02/01 04:27:52;;;;;;;5.90;5.30;;;;;;;;;;5017652;28;20186;-49
2024/02/01 04:30:18;;;;;;;5.50;5.00;;;;;;;;;;5025306;28;20182;-50
2024/02/01 04:32:45;;;;;;;6.13;5.20;;;;;;;;;;5022563;28;20186;-49
2024/02/01 04:35:12;;;;;;;5.57;5.03;;;;;;;;;;5020891;28;20228;-48
2024/02/01 04:37:38;;;;;;;5.63;5.03;;;;;;;;;;5022776;28;20508;-48
2024/02/01 04:40:05;;;;;;;6.50;5.73;;;;;;;;;;5020569;28;20182;-49
2024/02/01 04:42:35;;;;;;;6.23;5.63;;;;;;;;;;5025718;28;20194;-49
2024/02/01 04:45:04;;;;;;;5.70;5.20;;;;;;;;;;5025675;28;20174;-48
2024/02/01 04:47:31;;;;;;;6.07;5.47;;;;;;;;;;4999836;28;20222;-49
2024/02/01 04:49:57;;;;;;;5.73;5.23;;;;;;;;;;5022619;28;20182;-49
2024/02/01 04:52:23;;;;;;;5.93;5.33;;;;;;;;;;5023821;28;20181;-48
2024/02/01 04:54:49;;;;;;;7.07;5.90;;;;;;;;;;5027374;28;20225;-52
2024/02/01 04:57:15;;;;;;;5.97;5.40;;;;;;;;;;5025752;28;20213;-52
2024/02/01 04:59:44;;;;;;;6.47;5.67;;;;;;;;;;5028168;28;20189;-52
2024/02/01 05:02:14;;;;;;;7.20;5.77;;;;;;;;;;5019705;28;20597;-52
2024/02/01 05:04:40;;;;;;;5.95;5.35;;;;;;;;;;5020356;28;20340;-52
2024/02/01 05:07:06;;;;;;;9.40;5.67;;;;;;;;;;5020125;28;20189;-52
2024/02/01 05:09:36;;;;;;;5.67;5.13;;;;;;;;;;5018524;28;20162;-52
2024/02/01 05:12:02;;;;;;;7.50;5.80;;;;;;;;;;5015885;28;20579;-52
2024/02/01 05:14:28;;;;;;;6.23;5.60;;;;;;;;;;5028305;28;20677;-52
2024/02/01 05:16:54;;;;;;;7.70;6.50;;;;;;;;;;5024502;28;20174;-52
2024/02/01 05:19:21;;;;;;;5.73;5.23;;;;;;;;;;5022574;28;20680;-52
2024/02/01 05:21:47;;;;;;;7.93;5.70;;;;;;;;;;5023896;28;20193;-52
2024/02/01 05:24:14;;;;;;;6.17;5.57;;;;;;;;;;5027836;28;20223;-52
2024/02/01 05:26:40;;;;;;;6.93;6.23;;;;;;;;;;5026827;28;20583;-52
2024/02/01 05:29:09;;;;;;;6.27;5.43;;;;;;;;;;5028278;28;20642;-52
2024/02/01 05:31:35;;;;;;;7.17;6.20;;;;;;;;;;5023914;28;20174;-52
2024/02/01 05:34:01;;;;;;;6.13;5.53;;;;;;;;;;5023397;28;20174;-52
2024/02/01 05:36:27;;;;;;;7.17;5.90;;;;;;;;;;5020938;28;20498;-52
2024/02/01 05:38:53;;;;;;;5.77;5.23;;;;;;;;;;5019646;28;20276;-52
2024/02/01 05:41:19;;;;;;;5.87;5.27;;;;;;;;;;5024616;28;20353;-52
2024/02/01 05:43:45;;;;;;;7.03;6.33;;;;;;;;;;5018877;28;20197;-52
2024/02/01 05:46:14;;;;;;;7.23;6.57;;;;;;;;;;5021361;28;20360;-52
2024/02/01 05:48:41;;;;;;;6.57;5.87;;;;;;;;;;5019243;28;20222;-52
2024/02/01 05:51:07;;;;;;;6.73;5.70;;;;;;;;;;5018717;28;20193;-52
2024/02/01 05:53:33;;;;;;;6.27;5.67;;;;;;;;;;5020574;28;20185;-52
2024/02/01 05:55:59;;;;;;;6.33;5.73;;;;;;;;;;5019338;28;20352;-52
2024/02/01 05:58:28;;;;;;;6.63;5.93;;;;;;;;;;5021249;28;20193;-52
2024/02/01 06:00:54;;;;;;;6.50;5.80;;;;;;;;;;5023067;28;20166;-52
2024/02/01 06:03:20;;;;;;;6.63;5.80;;;;;;;;;;5017717;28;20182;-52
2024/02/01 06:05:48;;;;;;;6.00;5.43;;;;;;;;;;5016976;28;20213;-51
2024/02/01 06:08:18;;;;;;;7.37;5.80;;;;;;;;;;5023246;28;20419;-50
2024/02/01 06:10:44;;;;;;;7.97;6.00;;;;;;;;;;5020316;28;20217;-49
2024/02/01 06:13:11;;;;;;;12.27;8.70;;;;;;;;;;5022782;28;20869;-49
2024/02/01 06:15:37;;;;;;;11.33;8.20;;;;;;;;;;5020563;28;20719;-48
2024/02/01 06:18:03;;;;;;;9.30;6.53;;;;;;;;;;5025082;28;20571;-48
2024/02/01 06:20:30;;;;;;;8.80;7.80;;;;;;;;;;5026090;28;20633;-49
2024/02/01 06:22:57;;;;;;;8.03;7.23;;;;;;;;;;5025731;28;20174;-53
2024/02/01 06:25:23;;;;;;;7.90;7.10;;;;;;;;;;5026743;28;20160;-53
2024/02/01 06:27:49;;;;;;;9.00;7.03;;;;;;;;;;5026819;28;20269;-53
2024/02/01 06:30:15;;;;;;;8.00;6.57;;;;;;;;;;5017768;28;21808;-53
2024/02/01 06:32:42;;;;;;;8.27;6.50;;;;;;;;;;5024249;28;20186;-53
2024/02/01 06:35:16;;;;;;;6.67;5.97;;;;;;;;;;5025037;28;20186;-53
2024/02/01 06:37:42;;;;;;;6.93;6.17;;;;;;;;;;5020209;28;20497;-53
2024/02/01 06:45:44;;;;;;;6.97;5.50;;;;;;;;;;5022544;28;20177;-53
2024/02/01 06:48:11;;;;;;;5.70;5.00;;;;;;;;;;5015520;28;20237;-53
2024/02/01 06:50:54;;;;;;;6.70;4.57;;;;;;;;;;5017925;28;20664;-53
2024/02/01 06:53:23;;;;;;;8.27;3.40;;;;;;;;;;5020349;28;20170;-53
2024/02/01 06:56:13;;;;;;;6.70;3.97;;;;;;;;;;5019058;28;20248;-53
2024/02/01 06:59:11;;;;;;;7.53;3.00;;;;;;;;;;5015976;28;20701;-53
2024/02/01 07:01:48;;;;;;;4.27;2.60;;;;;;;;;;5011917;28;20197;-53
2024/02/01 07:04:20;;;;;;;6.20;3.07;;;;;;;;;;5015237;28;20166;-53
2024/02/01 07:07:17;;;;;;;7.27;2.67;;;;;;;;;;5011622;28;20201;-53
2024/02/01 07:09:47;;;;;;;11.03;3.27;;;;;;;;;;5012077;28;20170;-53
2024/02/01 07:12:29;;;;;;;4.60;2.47;;;;;;;;;;5012300;28;20187;-53
2024/02/01 07:17:47;;;;;;;8.50;2.63;;;;;;;;;;4989611;28;20290;-58
2024/02/01 07:20:23;;;;;;;5.87;2.00;;;;;;;;;;5020986;28;20550;-58
2024/02/01 07:23:00;;;;;;;6.23;2.10;;;;;;;;;;5015945;28;20530;-58
2024/02/01 07:25:46;;;;;;;7.10;3.33;;;;;;;;;;5016252;28;20563;-57
2024/02/01 07:58:23;;;;;;;6.83;2.50;;;;;;;;;;5018181;28;20640;-57
2024/02/01 08:00:51;;;;;;;10.57;3.87;;;;;;;;;;5013942;28;20175;-57
2024/02/01 08:03:42;;;;;;;11.20;2.73;;;;;;;;;;5018390;28;20174;-56
2024/02/01 08:08:53;;;;;;;7.07;2.90;;;;;;;;;;5014497;28;20664;-57
2024/02/01 08:11:19;;;;;;;7.60;2.50;;;;;;;;;;5013438;28;20187;-57
2024/02/01 08:13:48;;;;;;;11.50;2.70;;;;;;;;;;5016407;28;20180;-57
2024/02/01 08:16:17;;;;;;;6.53;3.37;;;;;;;;;;5022238;28;20190;-55
2024/02/01 08:18:43;;;;;;;8.67;3.13;;;;;;;;;;5024368;28;20566;-56
2024/02/01 08:21:14;;;;;;;9.00;3.33;;;;;;;;;;5020974;28;20281;-57
2024/02/01 08:23:40;;;;;;;7.40;2.60;;;;;;;;;;5017275;28;20179;-57
2024/02/01 08:26:06;;;;;;;8.73;3.07;;;;;;;;;;5021108;28;20186;-56
2024/02/01 08:28:32;;;;;;;9.00;2.20;;;;;;;;;;5021158;28;20755;-55
2024/02/01 08:31:12;;;;;;;9.60;3.07;;;;;;;;;;5026487;28;20272;-57
2024/02/01 08:33:42;;;;;;;10.23;3.10;;;;;;;;;;5018333;28;20582;-58
2024/02/01 08:36:10;;;;;;;5.03;2.40;;;;;;;;;;5013099;28;20194;-57
2024/02/01 08:38:36;;;;;;;9.47;3.20;;;;;;;;;;5011819;28;20788;-57
2024/02/01 08:41:03;;;;;;;7.97;2.60;;;;;;;;;;5019149;28;20204;-55
2024/02/01 08:43:29;;;;;;;11.70;2.43;;;;;;;;;;5021288;28;20690;-56
2024/02/01 08:45:56;;;;;;;4.97;3.13;;;;;;;;;;5025241;28;20587;-58
2024/02/01 08:48:24;;;;;;;6.90;2.97;;;;;;;;;;5013100;28;20249;-56
2024/02/01 08:50:52;;;;;;;6.07;2.17;;;;;;;;;;5017765;28;20179;-58
2024/02/01 08:53:19;;;;;;;11.63;3.03;;;;;;;;;;5015071;28;20181;-56
2024/02/01 08:55:45;;;;;;;12.57;2.73;;;;;;;;;;5018948;28;20479;-56
2024/02/01 08:58:12;;;;;;;6.40;2.30;;;;;;;;;;5016648;28;20618;-56
2024/02/01 09:00:38;;;;;;;9.80;3.00;;;;;;;;;;5023723;28;20317;-56
2024/02/01 09:03:06;;;;;;;7.13;2.53;;;;;;;;;;5017047;28;20703;-56
2024/02/01 09:05:37;;;;;;;4.13;2.40;;;;;;;;;;5016498;28;20186;-57
2024/02/01 09:08:08;;;;;;;7.77;2.87;;;;;;;;;;5017923;28;20182;-57
2024/02/01 09:10:34;;;;;;;6.33;2.40;;;;;;;;;;5015077;28;20559;-56
2024/02/01 09:13:01;;;;;;;15.73;3.03;;;;;;;;;;5012255;28;20189;-55
2024/02/01 09:15:27;;;;;;;7.73;2.67;;;;;;;;;;5015980;28;20227;-57
2024/02/01 09:17:56;;;;;;;6.13;2.10;;;;;;;;;;5017572;28;20213;-56
2024/02/01 09:20:22;;;;;;;10.90;2.90;;;;;;;;;;5012953;28;20174;-57
2024/02/01 09:22:57;;;;;;;5.70;2.80;;;;;;;;;;5021014;28;20179;-57
2024/02/01 09:25:26;;;;;;;9.67;2.67;;;;;;;;;;5022295;28;20659;-56
2024/02/01 09:27:53;;;;;;;8.97;2.93;;;;;;;;;;5018753;28;20182;-56
2024/02/01 09:30:20;;;;;;;11.50;3.17;;;;;;;;;;5016949;28;20220;-54
2024/02/01 09:32:53;;;;;;;9.33;3.00;;;;;;;;;;5015615;28;20272;-57
2024/02/01 09:35:20;;;;;;;10.23;3.77;;;;;;;;;;5015798;28;20233;-53
2024/02/01 09:37:51;;;;;;;13.10;3.97;;;;;;;;;;5010390;28;20206;-53
2024/02/01 09:40:17;;;;;;;8.00;2.90;;;;;;;;;;5015930;28;20263;-52
2024/02/01 09:42:46;;;;;;;9.50;2.90;;;;;;;;;;5022206;28;20272;-53
2024/02/01 09:45:12;;;;;;;8.80;3.23;;;;;;;;;;5012034;28;20198;-53
2024/02/01 09:47:43;;;;;;;10.47;3.60;;;;;;;;;;5014108;28;20234;-53
2024/02/01 09:50:12;;;;;;;8.57;2.93;;;;;;;;;;5017646;28;20703;-53
2024/02/01 09:52:39;;;;;;;9.97;3.13;;;;;;;;;;5020760;28;20181;-53
2024/02/01 09:55:07;;;;;;;8.30;2.93;;;;;;;;;;5010144;28;20240;-53
2024/02/01 09:57:40;;;;;;;7.07;2.47;;;;;;;;;;5018906;28;20289;-53
2024/02/01 10:00:10;;;;;;;7.53;2.73;;;;;;;;;;5012778;28;20179;-53
2024/02/01 10:02:36;;;;;;;9.03;2.97;;;;;;;;;;5016611;28;20270;-53
2024/02/01 10:05:02;;;;;;;9.73;2.97;;;;;;;;;;5019655;28;20178;-52
2024/02/01 10:07:30;;;;;;;11.60;3.50;;;;;;;;;;5018606;28;20440;-52
2024/02/01 10:09:57;;;;;;;8.20;3.07;;;;;;;;;;5017258;28;20185;-53
2024/02/01 10:12:25;;;;;;;9.83;3.40;;;;;;;;;;5011181;28;20549;-53
2024/02/01 10:14:51;;;;;;;9.50;3.17;;;;;;;;;;5011875;28;20728;-53
2024/02/01 10:17:17;;;;;;;9.43;3.57;;;;;;;;;;5015310;28;20178;-53
2024/02/01 10:19:49;;;;;;;7.83;3.17;;;;;;;;;;5023011;28;20625;-53
2024/02/01 10:22:15;;;;;;;7.40;2.93;;;;;;;;;;5016933;28;20208;-53
2024/02/01 10:24:45;;;;;;;11.70;3.37;;;;;;;;;;5015442;28;20191;-53
2024/02/01 10:27:12;;;;;;;7.87;2.73;;;;;;;;;;5010600;28;20716;-53
2024/02/01 10:29:44;;;;;;;10.63;3.20;;;;;;;;;;5019242;28;20211;-53
2024/02/01 10:32:14;;;;;;;8.00;2.73;;;;;;;;;;5012301;28;20194;-53
2024/02/01 10:34:44;;;;;;;7.63;2.60;;;;;;;;;;5018610;28;20184;-53
2024/02/01 10:37:12;;;;;;;7.90;3.73;;;;;;;;;;5012651;28;20174;-53
2024/02/01 10:39:39;;;;;;;5.90;2.63;;;;;;;;;;5017412;28;20193;-53
2024/02/01 10:42:08;;;;;;;8.27;2.83;;;;;;;;;;5016608;28;20688;-53
2024/02/01 10:44:39;;;;;;;11.00;3.30;;;;;;;;;;5014332;28;20261;-55
2024/02/01 10:47:15;;;;;;;8.40;2.97;;;;;;;;;;5017162;28;20286;-57
2024/02/01 10:49:44;;;;;;;6.30;3.07;;;;;;;;;;5013776;28;20323;-57
2024/02/01 10:52:11;;;;;;;11.13;3.00;;;;;;;;;;5018036;28;20239;-57
2024/02/01 10:54:38;;;;;;;13.20;4.50;;;;;;;;;;5016151;28;20519;-56
2024/02/01 10:57:07;;;;;;;10.57;3.43;;;;;;;;;;5017531;28;20179;-58
2024/02/01 10:59:34;;;;;;;8.63;3.03;;;;;;;;;;5017466;28;20190;-59
2024/02/01 11:02:00;;;;;;;14.93;3.43;;;;;;;;;;5019275;28;20769;-57
2024/02/01 11:04:33;;;;;;;8.40;3.03;;;;;;;;;;5016956;28;20176;-57
2024/02/01 11:07:00;;;;;;;10.70;3.17;;;;;;;;;;5022591;28;20174;-57
2024/02/01 11:09:28;;;;;;;10.70;3.03;;;;;;;;;;5008582;28;20196;-58
2024/02/01 11:11:56;;;;;;;7.83;2.90;;;;;;;;;;5013336;28;20198;-58
2024/02/01 11:14:24;;;;;;;14.23;3.27;;;;;;;;;;5010553;28;20716;-59
2024/02/01 11:16:53;;;;;;;16.43;4.60;;;;;;;;;;5015250;28;20597;-58
2024/02/01 11:19:39;;;;;;;14.05;4.10;;;;;;;;;;5020253;28;20202;-57
2024/02/01 11:22:06;;;;;;;10.00;2.87;;;;;;;;;;5023637;28;20182;-57
2024/02/01 11:24:33;;;;;;;10.30;3.23;;;;;;;;;;5015752;28;20263;-58
2024/02/01 11:27:36;;;;;;;12.10;4.00;;;;;;;;;;5015863;28;20282;-55
2024/02/01 11:30:24;;;;;;;12.70;3.00;;;;;;;;;;4976688;28;20201;-59
2024/02/01 11:32:52;;;;;;;9.33;3.23;;;;;;;;;;5015724;28;20406;-58
2024/02/01 11:35:18;;;;;;;10.50;2.87;;;;;;;;;;5027913;28;20590;-58
2024/02/01 11:37:44;;;;;;;7.43;3.53;;;;;;;;;;5021582;28;20562;-59
2024/02/01 11:40:18;;;;;;;8.87;3.50;;;;;;;;;;5027595;28;20545;-58
2024/02/01 11:42:45;;;;;;;11.67;3.57;;;;;;;;;;5022743;28;20202;-58
2024/02/01 11:45:14;;;;;;;10.23;3.20;;;;;;;;;;5022505;28;20180;-58
2024/02/01 11:47:40;;;;;;;7.77;2.93;;;;;;;;;;5022615;28;21212;-57
2024/02/01 11:50:07;;;;;;;11.10;3.70;;;;;;;;;;5002489;28;20185;-58
2024/02/01 11:52:44;;;;;;;13.10;3.50;;;;;;;;;;5027111;28;20708;-59
2024/02/01 11:55:11;;;;;;;7.13;3.63;;;;;;;;;;5017416;28;20289;-51
2024/02/01 11:57:47;;;;;;;12.67;3.87;;;;;;;;;;5014259;28;20615;-52
2024/02/01 12:00:16;;;;;;;10.13;3.87;;;;;;;;;;5020424;28;20228;-50
2024/02/01 12:02:45;;;;;;;10.53;3.10;;;;;;;;;;5031816;28;20178;-50
2024/02/01 12:05:12;;;;;;;11.87;3.30;;;;;;;;;;5030055;28;20177;-51
2024/02/01 12:07:38;;;;;;;11.37;3.57;;;;;;;;;;5030737;28;20632;-50
2024/02/01 12:10:11;;;;;;;10.23;2.97;;;;;;;;;;5011945;28;20270;-51
2024/02/01 12:12:38;;;;;;;10.77;3.60;;;;;;;;;;5025447;28;20196;-50
2024/02/01 12:15:04;;;;;;;9.30;3.33;;;;;;;;;;5014862;28;20661;-51
2024/02/01 12:17:42;;;;;;;11.27;3.27;;;;;;;;;;5016951;28;20229;-52
2024/02/01 12:20:13;;;;;;;8.73;3.40;;;;;;;;;;5020985;28;20253;-51
2024/02/01 12:22:39;;;;;;;8.87;3.40;;;;;;;;;;5024198;28;20177;-51
2024/02/01 12:25:12;;;;;;;9.63;3.20;;;;;;;;;;5028282;28;20190;-51
2024/02/01 12:27:40;;;;;;;13.13;3.73;;;;;;;;;;5016008;28;20271;-52
2024/02/01 12:30:11;;;;;;;12.47;3.77;;;;;;;;;;5019704;28;20631;-50
2024/02/01 12:32:45;;;;;;;12.47;3.50;;;;;;;;;;5018707;28;21083;-51
2024/02/01 12:35:12;;;;;;;12.17;3.50;;;;;;;;;;5018035;28;20170;-52
2024/02/01 12:37:42;;;;;;;9.83;2.60;;;;;;;;;;5022278;28;20230;-50
2024/02/01 12:40:10;;;;;;;11.53;3.47;;;;;;;;;;5019891;28;20562;-53
2024/02/01 12:42:36;;;;;;;10.10;3.07;;;;;;;;;;5022159;28;20701;-51
2024/02/01 12:45:03;;;;;;;10.27;4.10;;;;;;;;;;5020368;28;20175;-52
2024/02/01 12:47:33;;;;;;;12.97;3.20;;;;;;;;;;5024454;28;20233;-50
2024/02/01 12:49:59;;;;;;;19.47;4.40;;;;;;;;;;5024965;28;20193;-50
2024/02/01 12:52:25;;;;;;;9.33;3.47;;;;;;;;;;5013429;28;20186;-50
2024/02/01 12:54:51;;;;;;;11.77;3.17;;;;;;;;;;5018915;28;20177;-51
2024/02/01 12:57:21;;;;;;;14.33;4.00;;;;;;;;;;5017713;28;20186;-52
2024/02/01 12:59:48;;;;;;;6.20;3.97;;;;;;;;;;5014601;28;20595;-51
2024/02/01 13:02:14;;;;;;;7.30;3.10;;;;;;;;;;5019217;28;20224;-52
2024/02/01 13:04:40;;;;;;;11.20;4.00;;;;;;;;;;5021650;28;20214;-51
2024/02/01 13:07:11;;;;;;;8.50;4.00;;;;;;;;;;5018733;28;20166;-60
2024/02/01 13:09:38;;;;;;;11.20;2.87;;;;;;;;;;5015640;28;20266;-58
2024/02/01 13:12:18;;;;;;;9.47;2.90;;;;;;;;;;5015005;28;20181;-59
2024/02/01 13:14:44;;;;;;;9.43;2.90;;;;;;;;;;5017184;28;20288;-58
2024/02/01 13:17:11;;;;;;;9.97;2.93;;;;;;;;;;5019372;28;20322;-59
2024/02/01 13:19:40;;;;;;;9.83;3.00;;;;;;;;;;5012144;28;20198;-57
2024/02/01 13:22:07;;;;;;;6.37;2.93;;;;;;;;;;5018124;28;20171;-61
2024/02/01 13:24:33;;;;;;;7.50;2.87;;;;;;;;;;5016930;28;20232;-59
2024/02/01 13:26:59;;;;;;;12.07;2.97;;;;;;;;;;5019792;28;20166;-60
2024/02/01 13:29:25;;;;;;;9.37;3.40;;;;;;;;;;5016680;28;20185;-59
2024/02/01 13:31:51;;;;;;;11.43;3.17;;;;;;;;;;5014624;28;20526;-59
2024/02/01 13:34:17;;;;;;;10.10;2.83;;;;;;;;;;5018924;28;20194;-58
2024/02/01 13:36:43;;;;;;;7.13;3.27;;;;;;;;;;5025306;28;20271;-60
2024/02/01 13:39:11;;;;;;;12.57;3.40;;;;;;;;;;5010243;28;20199;-59
2024/02/01 13:41:37;;;;;;;12.60;3.20;;;;;;;;;;5019554;28;20553;-58
2024/02/01 13:44:04;;;;;;;9.10;3.30;;;;;;;;;;5022171;28;20586;-59
2024/02/01 13:46:30;;;;;;;10.37;3.03;;;;;;;;;;5016249;28;20242;-59
2024/02/01 13:48:56;;;;;;;7.57;2.27;;;;;;;;;;5024676;28;20192;-60
2024/02/01 13:51:22;;;;;;;11.57;3.03;;;;;;;;;;5019726;28;20634;-59
2024/02/01 13:53:49;;;;;;;11.13;3.10;;;;;;;;;;5016518;28;20201;-59
2024/02/01 13:56:15;;;;;;;12.00;3.20;;;;;;;;;;5021256;28;20166;-57
2024/02/01 13:58:41;;;;;;;11.63;2.87;;;;;;;;;;5020271;28;20276;-60
2024/02/01 14:01:07;;;;;;;11.37;2.77;;;;;;;;;;5011323;28;20171;-58
2024/02/01 14:03:33;;;;;;;9.90;3.37;;;;;;;;;;5011006;28;20303;-58
2024/02/01 14:05:59;;;;;;;11.80;2.93;;;;;;;;;;5014071;28;20422;-59
2024/02/01 14:08:26;;;;;;;9.57;3.67;;;;;;;;;;5014890;28;20176;-59
2024/02/01 14:10:53;;;;;;;11.77;3.23;;;;;;;;;;5019009;28;20280;-58
2024/02/01 14:13:19;;;;;;;10.47;3.90;;;;;;;;;;5015144;28;20227;-58
2024/02/01 14:15:45;;;;;;;9.77;3.73;;;;;;;;;;5017994;28;20189;-54
2024/02/01 14:18:11;;;;;;;8.30;3.33;;;;;;;;;;5018264;28;20658;-54
2024/02/01 14:20:37;;;;;;;9.67;3.70;;;;;;;;;;5013200;28;20179;-54
2024/02/01 14:23:03;;;;;;;9.67;3.30;;;;;;;;;;5017080;28;20193;-54
2024/02/01 14:25:29;;;;;;;12.27;4.03;;;;;;;;;;5020950;28;20178;-54
2024/02/01 14:27:55;;;;;;;10.60;3.60;;;;;;;;;;5013926;28;20182;-53
2024/02/01 14:30:22;;;;;;;11.60;3.00;;;;;;;;;;5017563;28;20517;-54
2024/02/01 14:32:48;;;;;;;10.73;3.57;;;;;;;;;;5023311;28;20498;-54
2024/02/01 14:35:14;;;;;;;12.80;3.57;;;;;;;;;;5017798;28;20614;-54
2024/02/01 14:37:42;;;;;;;12.47;3.57;;;;;;;;;;5019241;28;20205;-54
2024/02/01 14:40:10;;;;;;;10.50;3.20;;;;;;;;;;5022206;28;20188;-54
2024/02/01 14:42:36;;;;;;;11.70;3.40;;;;;;;;;;5020690;28;20206;-54
2024/02/01 14:45:02;;;;;;;9.20;2.73;;;;;;;;;;5017526;28;20188;-54
2024/02/01 14:47:28;;;;;;;9.27;3.43;;;;;;;;;;5021193;28;20542;-54
2024/02/01 14:49:54;;;;;;;9.17;2.70;;;;;;;;;;5023081;28;20174;-54
2024/02/01 14:52:20;;;;;;;8.73;3.10;;;;;;;;;;5021140;28;20174;-54
2024/02/01 14:54:48;;;;;;;5.80;2.93;;;;;;;;;;5015312;28;20950;-53
2024/02/01 14:57:14;;;;;;;14.63;3.37;;;;;;;;;;5025165;28;20638;-53
2024/02/01 14:59:40;;;;;;;9.90;3.60;;;;;;;;;;5018486;28;20713;-54
2024/02/01 15:02:06;;;;;;;11.93;3.33;;;;;;;;;;5014988;28;20236;-53
2024/02/01 15:04:33;;;;;;;9.23;3.53;;;;;;;;;;5019841;28;20189;-53
2024/02/01 15:06:59;;;;;;;8.80;2.60;;;;;;;;;;5020951;28;20174;-53
2024/02/01 15:09:25;;;;;;;11.87;3.17;;;;;;;;;;5016492;28;20170;-54
2024/02/01 15:11:51;;;;;;;12.53;3.70;;;;;;;;;;5016481;28;20251;-54
2024/02/01 15:14:17;;;;;;;7.63;3.00;;;;;;;;;;5018882;28;20625;-53
2024/02/01 15:16:45;;;;;;;13.27;3.37;;;;;;;;;;5011582;28;20178;-53
2024/02/01 15:19:11;;;;;;;7.93;2.70;;;;;;;;;;5012406;28;20214;-53
2024/02/01 15:21:39;;;;;;;8.77;3.23;;;;;;;;;;5007619;28;20509;-53
2024/02/01 15:24:12;;;;;;;10.23;3.17;;;;;;;;;;5024445;28;20625;-54
2024/02/01 15:26:39;;;;;;;8.10;2.63;;;;;;;;;;5007667;28;20196;-53